Mason, Nevada
Current Conditions -  °F | °C
As of 2:35 AM on Thursday 27 Nov 2014 (Local Time) from KMEV Reporting Station
Clear Clear  
Wind Chill: 50°   Ceiling: Unl
Heat Index: 50°   Visibility: 10mi
Dew Point: 21°   Wind: 5mph
Humidity: 32%   Direction: 360°N
Pressure: 30.31"   Gusts: NA
Location:  38.8785°N, 119.096°W
Report Text: KMEV 271035Z AUTO 36004KT 10SM CLR 10/M06 A3031 RMK AO2
Loading
Personal Weather Stations






























Interactive Weather Map New forecast layout! Learn more

10-Day Weather Forecast

Advertisements
Track Severe Weather on mobile